sensor_id;sensor_type;location;lat;lon;timestamp;pressure;altitude;pressure_sealevel;temperature
70831;BMP180;58451;51.550;7.208;2023-12-29T00:00:11;100148.20;;;10.40
70831;BMP180;58451;51.550;7.208;2023-12-29T00:01:44;100154.80;;;10.40
70831;BMP180;58451;51.550;7.208;2023-12-29T00:03:16;100153.60;;;10.40
70831;BMP180;58451;51.550;7.208;2023-12-29T00:04:48;100156.20;;;10.40
70831;BMP180;58451;51.550;7.208;2023-12-29T00:06:20;100155.40;;;10.40
70831;BMP180;58451;51.550;7.208;2023-12-29T00:07:51;100143.20;;;10.40
70831;BMP180;58451;51.550;7.208;2023-12-29T00:09:23;100140.80;;;10.40
70831;BMP180;58451;51.550;7.208;2023-12-29T00:10:55;100133.60;;;10.40
70831;BMP180;58451;51.550;7.208;2023-12-29T00:12:27;100150.40;;;10.40
70831;BMP180;58451;51.550;7.208;2023-12-29T00:14:00;100137.40;;;10.40
70831;BMP180;58451;51.550;7.208;2023-12-29T00:15:32;100142.80;;;10.40
70831;BMP180;58451;51.550;7.208;2023-12-29T00:17:04;100138.00;;;10.40
70831;BMP180;58451;51.550;7.208;2023-12-29T00:18:39;100133.00;;;10.40
70831;BMP180;58451;51.550;7.208;2023-12-29T00:20:11;100125.40;;;10.40
70831;BMP180;58451;51.550;7.208;2023-12-29T00:21:52;100131.60;;;10.40
70831;BMP180;58451;51.550;7.208;2023-12-29T00:23:23;100133.00;;;10.40
70831;BMP180;58451;51.550;7.208;2023-12-29T00:24:55;100131.20;;;10.40
70831;BMP180;58451;51.550;7.208;2023-12-29T00:26:27;100127.80;;;10.42
70831;BMP180;58451;51.550;7.208;2023-12-29T00:28:00;100124.20;;;10.46
70831;BMP180;58451;51.550;7.208;2023-12-29T00:29:34;100129.80;;;10.48
70831;BMP180;58451;51.550;7.208;2023-12-29T00:31:07;100124.60;;;10.42
70831;BMP180;58451;51.550;7.208;2023-12-29T00:32:39;100123.40;;;10.44
70831;BMP180;58451;51.550;7.208;2023-12-29T00:34:11;100120.40;;;10.46
70831;BMP180;58451;51.550;7.208;2023-12-29T00:35:44;100125.00;;;10.42
70831;BMP180;58451;51.550;7.208;2023-12-29T00:37:16;100120.20;;;10.48
70831;BMP180;58451;51.550;7.208;2023-12-29T00:38:48;100121.60;;;10.50
70831;BMP180;58451;51.550;7.208;2023-12-29T00:40:20;100119.20;;;10.50
70831;BMP180;58451;51.550;7.208;2023-12-29T00:41:52;100124.00;;;10.50
70831;BMP180;58451;51.550;7.208;2023-12-29T00:43:23;100128.40;;;10.50
70831;BMP180;58451;51.550;7.208;2023-12-29T00:44:55;100130.00;;;10.50
70831;BMP180;58451;51.550;7.208;2023-12-29T00:46:27;100121.40;;;10.50
70831;BMP180;58451;51.550;7.208;2023-12-29T00:47:59;100134.80;;;10.50
70831;BMP180;58451;51.550;7.208;2023-12-29T00:49:32;100125.60;;;10.50
70831;BMP180;58451;51.550;7.208;2023-12-29T00:51:04;100113.60;;;10.50
70831;BMP180;58451;51.550;7.208;2023-12-29T00:52:36;100119.60;;;10.50
70831;BMP180;58451;51.550;7.208;2023-12-29T00:54:08;100120.80;;;10.50
70831;BMP180;58451;51.550;7.208;2023-12-29T00:55:40;100111.40;;;10.50
70831;BMP180;58451;51.550;7.208;2023-12-29T00:57:12;100113.40;;;10.50
70831;BMP180;58451;51.550;7.208;2023-12-29T00:58:44;100117.80;;;10.50
70831;BMP180;58451;51.550;7.208;2023-12-29T01:00:16;100116.00;;;10.50
70831;BMP180;58451;51.550;7.208;2023-12-29T01:01:48;100113.60;;;10.50
70831;BMP180;58451;51.550;7.208;2023-12-29T01:03:20;100113.00;;;10.52
70831;BMP180;58451;51.550;7.208;2023-12-29T01:04:55;100106.20;;;10.50
70831;BMP180;58451;51.550;7.208;2023-12-29T01:06:27;100102.60;;;10.50
70831;BMP180;58451;51.550;7.208;2023-12-29T01:07:59;100111.80;;;10.50
70831;BMP180;58451;51.550;7.208;2023-12-29T01:09:32;100110.00;;;10.50
70831;BMP180;58451;51.550;7.208;2023-12-29T01:11:05;100106.60;;;10.50
70831;BMP180;58451;51.550;7.208;2023-12-29T01:12:37;100093.40;;;10.50
70831;BMP180;58451;51.550;7.208;2023-12-29T01:14:08;100091.60;;;10.50
70831;BMP180;58451;51.550;7.208;2023-12-29T01:15:40;100077.20;;;10.50
70831;BMP180;58451;51.550;7.208;2023-12-29T01:17:16;100075.80;;;10.50
70831;BMP180;58451;51.550;7.208;2023-12-29T01:18:47;100083.40;;;10.50
70831;BMP180;58451;51.550;7.208;2023-12-29T01:20:19;100088.60;;;10.50
70831;BMP180;58451;51.550;7.208;2023-12-29T01:21:53;100074.60;;;10.50
70831;BMP180;58451;51.550;7.208;2023-12-29T01:23:26;100083.40;;;10.50
70831;BMP180;58451;51.550;7.208;2023-12-29T01:25:01;100078.40;;;10.50
70831;BMP180;58451;51.550;7.208;2023-12-29T01:26:37;100069.40;;;10.50
70831;BMP180;58451;51.550;7.208;2023-12-29T01:28:10;100079.60;;;10.50
70831;BMP180;58451;51.550;7.208;2023-12-29T01:29:42;100069.80;;;10.50
70831;BMP180;58451;51.550;7.208;2023-12-29T01:31:14;100059.00;;;10.50
70831;BMP180;58451;51.550;7.208;2023-12-29T01:32:47;100062.40;;;10.50
70831;BMP180;58451;51.550;7.208;2023-12-29T01:34:18;100071.40;;;10.48
70831;BMP180;58451;51.550;7.208;2023-12-29T01:35:50;100069.60;;;10.50
70831;BMP180;58451;51.550;7.208;2023-12-29T01:37:22;100063.80;;;10.50
70831;BMP180;58451;51.550;7.208;2023-12-29T01:38:54;100066.00;;;10.50
70831;BMP180;58451;51.550;7.208;2023-12-29T01:40:27;100066.00;;;10.50
70831;BMP180;58451;51.550;7.208;2023-12-29T01:41:58;100064.60;;;10.50
70831;BMP180;58451;51.550;7.208;2023-12-29T01:43:30;100068.20;;;10.50
70831;BMP180;58451;51.550;7.208;2023-12-29T01:45:03;100062.40;;;10.50
70831;BMP180;58451;51.550;7.208;2023-12-29T01:46:35;100057.80;;;10.50
70831;BMP180;58451;51.550;7.208;2023-12-29T01:48:08;100053.20;;;10.50
70831;BMP180;58451;51.550;7.208;2023-12-29T01:49:46;100064.80;;;10.50
70831;BMP180;58451;51.550;7.208;2023-12-29T01:51:21;100066.80;;;10.44
70831;BMP180;58451;51.550;7.208;2023-12-29T01:52:55;100058.00;;;10.42
70831;BMP180;58451;51.550;7.208;2023-12-29T01:54:34;100056.80;;;10.48
70831;BMP180;58451;51.550;7.208;2023-12-29T01:56:08;100057.20;;;10.44
70831;BMP180;58451;51.550;7.208;2023-12-29T01:57:40;100075.20;;;10.46
70831;BMP180;58451;51.550;7.208;2023-12-29T01:59:12;100063.80;;;10.40
70831;BMP180;58451;51.550;7.208;2023-12-29T02:00:55;100069.80;;;10.40
70831;BMP180;58451;51.550;7.208;2023-12-29T02:02:28;100067.00;;;10.40
70831;BMP180;58451;51.550;7.208;2023-12-29T02:04:00;100067.20;;;10.30
70831;BMP180;58451;51.550;7.208;2023-12-29T02:05:34;100073.20;;;10.30
70831;BMP180;58451;51.550;7.208;2023-12-29T02:07:06;100059.40;;;10.20
70831;BMP180;58451;51.550;7.208;2023-12-29T02:08:40;100067.40;;;10.12
70831;BMP180;58451;51.550;7.208;2023-12-29T02:10:12;100063.80;;;10.10
70831;BMP180;58451;51.550;7.208;2023-12-29T02:11:48;100065.80;;;10.00
70831;BMP180;58451;51.550;7.208;2023-12-29T02:13:20;100079.20;;;9.98
70831;BMP180;58451;51.550;7.208;2023-12-29T02:14:54;100074.20;;;9.90
70831;BMP180;58451;51.550;7.208;2023-12-29T02:18:22;100085.60;;;9.80
70831;BMP180;58451;51.550;7.208;2023-12-29T02:19:55;100086.40;;;9.70
70831;BMP180;58451;51.550;7.208;2023-12-29T02:21:27;100091.80;;;9.60
70831;BMP180;58451;51.550;7.208;2023-12-29T02:22:59;100093.60;;;9.60
70831;BMP180;58451;51.550;7.208;2023-12-29T02:24:33;100099.80;;;9.50
70831;BMP180;58451;51.550;7.208;2023-12-29T02:26:10;100099.20;;;9.42
70831;BMP180;58451;51.550;7.208;2023-12-29T02:27:59;100106.80;;;9.40
70831;BMP180;58451;51.550;7.208;2023-12-29T02:29:33;100089.60;;;9.30
70831;BMP180;58451;51.550;7.208;2023-12-29T02:31:16;100097.80;;;9.20
70831;BMP180;58451;51.550;7.208;2023-12-29T02:32:54;100097.60;;;9.10
70831;BMP180;58451;51.550;7.208;2023-12-29T02:34:29;100097.00;;;9.10
70831;BMP180;58451;51.550;7.208;2023-12-29T02:36:05;100096.60;;;9.00
70831;BMP180;58451;51.550;7.208;2023-12-29T02:37:39;100082.80;;;9.00
70831;BMP180;58451;51.550;7.208;2023-12-29T02:39:11;100082.40;;;8.90
70831;BMP180;58451;51.550;7.208;2023-12-29T02:40:43;100076.20;;;8.90
70831;BMP180;58451;51.550;7.208;2023-12-29T02:42:16;100075.40;;;8.90
70831;BMP180;58451;51.550;7.208;2023-12-29T02:43:48;100078.40;;;8.86
70831;BMP180;58451;51.550;7.208;2023-12-29T02:45:20;100078.40;;;8.84
70831;BMP180;58451;51.550;7.208;2023-12-29T02:46:51;100079.60;;;8.80
70831;BMP180;58451;51.550;7.208;2023-12-29T02:48:23;100083.20;;;8.80
70831;BMP180;58451;51.550;7.208;2023-12-29T02:49:55;100089.20;;;8.80
70831;BMP180;58451;51.550;7.208;2023-12-29T02:51:28;100087.20;;;8.80
70831;BMP180;58451;51.550;7.208;2023-12-29T02:53:02;100087.00;;;8.80
70831;BMP180;58451;51.550;7.208;2023-12-29T02:54:35;100100.00;;;8.80
70831;BMP180;58451;51.550;7.208;2023-12-29T02:56:07;100102.00;;;8.78
70831;BMP180;58451;51.550;7.208;2023-12-29T02:57:39;100097.60;;;8.70
70831;BMP180;58451;51.550;7.208;2023-12-29T02:59:11;100086.80;;;8.70
70831;BMP180;58451;51.550;7.208;2023-12-29T03:00:44;100061.60;;;8.70
70831;BMP180;58451;51.550;7.208;2023-12-29T03:02:16;100040.80;;;8.70
70831;BMP180;58451;51.550;7.208;2023-12-29T03:03:48;100035.80;;;8.70
70831;BMP180;58451;51.550;7.208;2023-12-29T03:05:20;100042.80;;;8.70
70831;BMP180;58451;51.550;7.208;2023-12-29T03:06:52;100052.20;;;8.70
70831;BMP180;58451;51.550;7.208;2023-12-29T03:08:24;100045.60;;;8.68
70831;BMP180;58451;51.550;7.208;2023-12-29T03:09:56;100055.80;;;8.70
70831;BMP180;58451;51.550;7.208;2023-12-29T03:11:27;100058.60;;;8.70
70831;BMP180;58451;51.550;7.208;2023-12-29T03:12:59;100054.20;;;8.70
70831;BMP180;58451;51.550;7.208;2023-12-29T03:14:31;100052.40;;;8.70
70831;BMP180;58451;51.550;7.208;2023-12-29T03:16:03;100042.00;;;8.70
70831;BMP180;58451;51.550;7.208;2023-12-29T03:17:35;100045.80;;;8.70
70831;BMP180;58451;51.550;7.208;2023-12-29T03:19:07;100046.00;;;8.70
70831;BMP180;58451;51.550;7.208;2023-12-29T03:20:39;100047.00;;;8.70
70831;BMP180;58451;51.550;7.208;2023-12-29T03:22:11;100040.80;;;8.78
70831;BMP180;58451;51.550;7.208;2023-12-29T03:23:43;100046.40;;;8.80
70831;BMP180;58451;51.550;7.208;2023-12-29T03:25:15;100050.00;;;8.80
70831;BMP180;58451;51.550;7.208;2023-12-29T03:26:47;100038.20;;;8.80
70831;BMP180;58451;51.550;7.208;2023-12-29T03:28:19;100044.40;;;8.80
70831;BMP180;58451;51.550;7.208;2023-12-29T03:29:51;100041.00;;;8.80
70831;BMP180;58451;51.550;7.208;2023-12-29T03:31:25;100055.00;;;8.90
70831;BMP180;58451;51.550;7.208;2023-12-29T03:32:57;100037.80;;;8.90
70831;BMP180;58451;51.550;7.208;2023-12-29T03:34:29;100041.40;;;8.90
70831;BMP180;58451;51.550;7.208;2023-12-29T03:36:01;100036.20;;;8.98
70831;BMP180;58451;51.550;7.208;2023-12-29T03:37:33;100043.00;;;9.00
70831;BMP180;58451;51.550;7.208;2023-12-29T03:39:05;100024.80;;;9.00
70831;BMP180;58451;51.550;7.208;2023-12-29T03:40:38;100029.80;;;9.00
70831;BMP180;58451;51.550;7.208;2023-12-29T03:42:09;100038.80;;;9.00
70831;BMP180;58451;51.550;7.208;2023-12-29T03:43:41;100034.40;;;9.10
70831;BMP180;58451;51.550;7.208;2023-12-29T03:45:13;100039.80;;;9.10
70831;BMP180;58451;51.550;7.208;2023-12-29T03:46:46;100035.00;;;9.10
70831;BMP180;58451;51.550;7.208;2023-12-29T03:48:17;100034.60;;;9.10
70831;BMP180;58451;51.550;7.208;2023-12-29T03:49:50;100029.20;;;9.10
70831;BMP180;58451;51.550;7.208;2023-12-29T03:51:22;100015.40;;;9.16
70831;BMP180;58451;51.550;7.208;2023-12-29T03:52:54;100016.60;;;9.20
70831;BMP180;58451;51.550;7.208;2023-12-29T03:54:25;100013.00;;;9.20
70831;BMP180;58451;51.550;7.208;2023-12-29T03:55:57;100014.60;;;9.20
70831;BMP180;58451;51.550;7.208;2023-12-29T03:57:29;100014.80;;;9.20
70831;BMP180;58451;51.550;7.208;2023-12-29T03:59:01;100014.60;;;9.24
70831;BMP180;58451;51.550;7.208;2023-12-29T04:00:32;100010.40;;;9.30
70831;BMP180;58451;51.550;7.208;2023-12-29T04:02:04;100017.20;;;9.30
70831;BMP180;58451;51.550;7.208;2023-12-29T04:03:37;100017.40;;;9.30
70831;BMP180;58451;51.550;7.208;2023-12-29T04:05:09;100016.00;;;9.30
70831;BMP180;58451;51.550;7.208;2023-12-29T04:06:42;100024.20;;;9.30
70831;BMP180;58451;51.550;7.208;2023-12-29T04:08:14;100029.40;;;9.30
70831;BMP180;58451;51.550;7.208;2023-12-29T04:09:46;100034.00;;;9.30
70831;BMP180;58451;51.550;7.208;2023-12-29T04:11:18;100024.20;;;9.30
70831;BMP180;58451;51.550;7.208;2023-12-29T04:12:50;100022.60;;;9.34
70831;BMP180;58451;51.550;7.208;2023-12-29T04:14:22;100020.80;;;9.40
70831;BMP180;58451;51.550;7.208;2023-12-29T04:15:55;100034.60;;;9.36
70831;BMP180;58451;51.550;7.208;2023-12-29T04:17:27;100015.20;;;9.40
70831;BMP180;58451;51.550;7.208;2023-12-29T04:18:59;100020.40;;;9.40
70831;BMP180;58451;51.550;7.208;2023-12-29T04:20:31;100009.20;;;9.40
70831;BMP180;58451;51.550;7.208;2023-12-29T04:22:03;100006.00;;;9.40
70831;BMP180;58451;51.550;7.208;2023-12-29T04:23:35;100014.40;;;9.40
70831;BMP180;58451;51.550;7.208;2023-12-29T04:25:07;100014.00;;;9.40
70831;BMP180;58451;51.550;7.208;2023-12-29T04:26:40;100018.80;;;9.38
70831;BMP180;58451;51.550;7.208;2023-12-29T04:28:12;100016.60;;;9.40
70831;BMP180;58451;51.550;7.208;2023-12-29T04:29:44;100017.20;;;9.40
70831;BMP180;58451;51.550;7.208;2023-12-29T04:31:20;100019.60;;;9.40
70831;BMP180;58451;51.550;7.208;2023-12-29T04:32:52;100009.40;;;9.40
70831;BMP180;58451;51.550;7.208;2023-12-29T04:34:24;100007.40;;;9.40
70831;BMP180;58451;51.550;7.208;2023-12-29T04:35:56;100011.60;;;9.40
70831;BMP180;58451;51.550;7.208;2023-12-29T04:37:29;100014.00;;;9.40
70831;BMP180;58451;51.550;7.208;2023-12-29T04:39:01;100007.40;;;9.40
70831;BMP180;58451;51.550;7.208;2023-12-29T04:40:32;100012.60;;;9.40
70831;BMP180;58451;51.550;7.208;2023-12-29T04:42:04;100015.20;;;9.42
70831;BMP180;58451;51.550;7.208;2023-12-29T04:43:36;100023.00;;;9.48
70831;BMP180;58451;51.550;7.208;2023-12-29T04:45:08;100018.40;;;9.50
70831;BMP180;58451;51.550;7.208;2023-12-29T04:46:41;100024.80;;;9.50
70831;BMP180;58451;51.550;7.208;2023-12-29T04:48:14;100020.40;;;9.50
70831;BMP180;58451;51.550;7.208;2023-12-29T04:49:45;100027.60;;;9.50
70831;BMP180;58451;51.550;7.208;2023-12-29T04:51:17;100020.00;;;9.60
70831;BMP180;58451;51.550;7.208;2023-12-29T04:52:49;100021.40;;;9.60
70831;BMP180;58451;51.550;7.208;2023-12-29T04:54:22;100033.80;;;9.60
70831;BMP180;58451;51.550;7.208;2023-12-29T04:55:54;100027.00;;;9.60
70831;BMP180;58451;51.550;7.208;2023-12-29T04:57:26;100037.40;;;9.60
70831;BMP180;58451;51.550;7.208;2023-12-29T04:58:58;100025.00;;;9.70
70831;BMP180;58451;51.550;7.208;2023-12-29T05:00:30;100025.80;;;9.70
70831;BMP180;58451;51.550;7.208;2023-12-29T05:02:02;100019.60;;;9.70
70831;BMP180;58451;51.550;7.208;2023-12-29T05:03:34;100026.40;;;9.70
70831;BMP180;58451;51.550;7.208;2023-12-29T05:05:07;100026.60;;;9.70
70831;BMP180;58451;51.550;7.208;2023-12-29T05:06:39;100024.40;;;9.70
70831;BMP180;58451;51.550;7.208;2023-12-29T05:08:11;100020.80;;;9.70
70831;BMP180;58451;51.550;7.208;2023-12-29T05:09:42;100028.20;;;9.70
70831;BMP180;58451;51.550;7.208;2023-12-29T05:11:14;100027.00;;;9.70
70831;BMP180;58451;51.550;7.208;2023-12-29T05:12:46;100022.20;;;9.70
70831;BMP180;58451;51.550;7.208;2023-12-29T05:14:18;100032.80;;;9.70
70831;BMP180;58451;51.550;7.208;2023-12-29T05:15:50;100026.20;;;9.70
70831;BMP180;58451;51.550;7.208;2023-12-29T05:17:22;100023.80;;;9.72
70831;BMP180;58451;51.550;7.208;2023-12-29T05:18:54;100024.20;;;9.70
70831;BMP180;58451;51.550;7.208;2023-12-29T05:20:26;100035.40;;;9.70
70831;BMP180;58451;51.550;7.208;2023-12-29T05:21:58;100039.60;;;9.70
70831;BMP180;58451;51.550;7.208;2023-12-29T05:23:30;100036.80;;;9.70
70831;BMP180;58451;51.550;7.208;2023-12-29T05:25:03;100035.60;;;9.70
70831;BMP180;58451;51.550;7.208;2023-12-29T05:26:35;100040.60;;;9.72
70831;BMP180;58451;51.550;7.208;2023-12-29T05:28:07;100043.00;;;9.70
70831;BMP180;58451;51.550;7.208;2023-12-29T05:29:39;100034.00;;;9.70
70831;BMP180;58451;51.550;7.208;2023-12-29T05:31:11;100030.40;;;9.70
70831;BMP180;58451;51.550;7.208;2023-12-29T05:32:43;100037.80;;;9.70
70831;BMP180;58451;51.550;7.208;2023-12-29T05:34:15;100033.00;;;9.70
70831;BMP180;58451;51.550;7.208;2023-12-29T05:35:47;100032.20;;;9.70
70831;BMP180;58451;51.550;7.208;2023-12-29T05:37:19;100032.60;;;9.70
70831;BMP180;58451;51.550;7.208;2023-12-29T05:38:51;100036.80;;;9.70
70831;BMP180;58451;51.550;7.208;2023-12-29T05:40:22;100033.40;;;9.70
70831;BMP180;58451;51.550;7.208;2023-12-29T05:41:54;100030.80;;;9.70
70831;BMP180;58451;51.550;7.208;2023-12-29T05:43:27;100028.20;;;9.70
70831;BMP180;58451;51.550;7.208;2023-12-29T05:44:59;100024.00;;;9.70
70831;BMP180;58451;51.550;7.208;2023-12-29T05:46:31;100031.00;;;9.70
70831;BMP180;58451;51.550;7.208;2023-12-29T05:48:03;100026.80;;;9.70
70831;BMP180;58451;51.550;7.208;2023-12-29T05:49:35;100029.80;;;9.72
70831;BMP180;58451;51.550;7.208;2023-12-29T05:51:13;100036.00;;;9.78
70831;BMP180;58451;51.550;7.208;2023-12-29T05:52:45;100033.60;;;9.80
70831;BMP180;58451;51.550;7.208;2023-12-29T05:54:21;100024.20;;;9.80
70831;BMP180;58451;51.550;7.208;2023-12-29T05:55:53;100023.20;;;9.80
70831;BMP180;58451;51.550;7.208;2023-12-29T05:57:25;100029.40;;;9.80
70831;BMP180;58451;51.550;7.208;2023-12-29T05:58:56;100038.80;;;9.80
70831;BMP180;58451;51.550;7.208;2023-12-29T06:00:28;100037.40;;;9.80
70831;BMP180;58451;51.550;7.208;2023-12-29T06:02:00;100039.00;;;9.80
70831;BMP180;58451;51.550;7.208;2023-12-29T06:03:32;100043.00;;;9.80
70831;BMP180;58451;51.550;7.208;2023-12-29T06:05:04;100046.60;;;9.80
70831;BMP180;58451;51.550;7.208;2023-12-29T06:06:36;100040.00;;;9.80
70831;BMP180;58451;51.550;7.208;2023-12-29T06:08:08;100041.00;;;9.80
70831;BMP180;58451;51.550;7.208;2023-12-29T06:09:40;100036.00;;;9.80
70831;BMP180;58451;51.550;7.208;2023-12-29T06:11:16;100046.40;;;9.80
70831;BMP180;58451;51.550;7.208;2023-12-29T06:12:48;100040.60;;;9.80
70831;BMP180;58451;51.550;7.208;2023-12-29T06:14:20;100048.60;;;9.80
70831;BMP180;58451;51.550;7.208;2023-12-29T06:15:52;100050.60;;;9.80
70831;BMP180;58451;51.550;7.208;2023-12-29T06:17:24;100051.00;;;9.80
70831;BMP180;58451;51.550;7.208;2023-12-29T06:18:56;100040.20;;;9.80
70831;BMP180;58451;51.550;7.208;2023-12-29T06:20:28;100044.80;;;9.80
70831;BMP180;58451;51.550;7.208;2023-12-29T06:22:01;100041.80;;;9.80
70831;BMP180;58451;51.550;7.208;2023-12-29T06:23:33;100053.40;;;9.80
70831;BMP180;58451;51.550;7.208;2023-12-29T06:25:05;100054.40;;;9.80
70831;BMP180;58451;51.550;7.208;2023-12-29T06:26:40;100050.00;;;9.80
70831;BMP180;58451;51.550;7.208;2023-12-29T06:28:15;100057.80;;;9.80
70831;BMP180;58451;51.550;7.208;2023-12-29T06:29:46;100049.60;;;9.80
70831;BMP180;58451;51.550;7.208;2023-12-29T06:31:18;100057.20;;;9.80
70831;BMP180;58451;51.550;7.208;2023-12-29T06:32:50;100068.80;;;9.80
70831;BMP180;58451;51.550;7.208;2023-12-29T06:34:23;100041.40;;;9.80
70831;BMP180;58451;51.550;7.208;2023-12-29T06:35:55;100052.40;;;9.80
70831;BMP180;58451;51.550;7.208;2023-12-29T06:37:27;100058.20;;;9.80
70831;BMP180;58451;51.550;7.208;2023-12-29T06:38:59;100059.40;;;9.86
70831;BMP180;58451;51.550;7.208;2023-12-29T06:40:31;100056.00;;;9.90
70831;BMP180;58451;51.550;7.208;2023-12-29T06:42:03;100055.40;;;9.88
70831;BMP180;58451;51.550;7.208;2023-12-29T06:43:35;100056.80;;;9.90
70831;BMP180;58451;51.550;7.208;2023-12-29T06:45:08;100041.60;;;9.90
70831;BMP180;58451;51.550;7.208;2023-12-29T06:46:40;100037.00;;;9.90
70831;BMP180;58451;51.550;7.208;2023-12-29T06:48:12;100042.60;;;9.90
70831;BMP180;58451;51.550;7.208;2023-12-29T06:49:44;100050.00;;;9.80
70831;BMP180;58451;51.550;7.208;2023-12-29T06:51:19;100054.20;;;9.88
70831;BMP180;58451;51.550;7.208;2023-12-29T06:52:51;100046.60;;;9.80
70831;BMP180;58451;51.550;7.208;2023-12-29T06:54:23;100045.80;;;9.80
70831;BMP180;58451;51.550;7.208;2023-12-29T06:55:55;100050.40;;;9.80
70831;BMP180;58451;51.550;7.208;2023-12-29T06:57:27;100054.00;;;9.80
70831;BMP180;58451;51.550;7.208;2023-12-29T06:58:58;100061.40;;;9.80
70831;BMP180;58451;51.550;7.208;2023-12-29T07:00:30;100052.00;;;9.80
70831;BMP180;58451;51.550;7.208;2023-12-29T07:02:03;100037.40;;;9.80
70831;BMP180;58451;51.550;7.208;2023-12-29T07:03:36;100037.40;;;9.90
70831;BMP180;58451;51.550;7.208;2023-12-29T07:05:08;100041.00;;;9.90
70831;BMP180;58451;51.550;7.208;2023-12-29T07:06:40;100042.80;;;9.90
70831;BMP180;58451;51.550;7.208;2023-12-29T07:08:15;100043.00;;;9.90
70831;BMP180;58451;51.550;7.208;2023-12-29T07:09:47;100038.20;;;9.90
70831;BMP180;58451;51.550;7.208;2023-12-29T07:11:20;100038.60;;;9.90
70831;BMP180;58451;51.550;7.208;2023-12-29T07:12:52;100036.60;;;9.90
70831;BMP180;58451;51.550;7.208;2023-12-29T07:14:24;100039.00;;;9.90
70831;BMP180;58451;51.550;7.208;2023-12-29T07:15:56;100037.80;;;9.90
70831;BMP180;58451;51.550;7.208;2023-12-29T07:17:29;100036.40;;;9.80
70831;BMP180;58451;51.550;7.208;2023-12-29T07:19:01;100037.60;;;9.80
70831;BMP180;58451;51.550;7.208;2023-12-29T07:20:33;100032.00;;;9.80
70831;BMP180;58451;51.550;7.208;2023-12-29T07:22:05;100031.20;;;9.78
70831;BMP180;58451;51.550;7.208;2023-12-29T07:23:38;100037.80;;;9.70
70831;BMP180;58451;51.550;7.208;2023-12-29T07:25:11;100036.60;;;9.70
70831;BMP180;58451;51.550;7.208;2023-12-29T07:26:44;100033.40;;;9.70
70831;BMP180;58451;51.550;7.208;2023-12-29T07:28:16;100034.40;;;9.64
70831;BMP180;58451;51.550;7.208;2023-12-29T07:29:48;100043.20;;;9.60
70831;BMP180;58451;51.550;7.208;2023-12-29T07:31:21;100028.80;;;9.58
70831;BMP180;58451;51.550;7.208;2023-12-29T07:32:53;100035.40;;;9.50
70831;BMP180;58451;51.550;7.208;2023-12-29T07:34:25;100023.60;;;9.50
70831;BMP180;58451;51.550;7.208;2023-12-29T07:35:57;100025.80;;;9.42
70831;BMP180;58451;51.550;7.208;2023-12-29T07:37:29;100029.00;;;9.40
70831;BMP180;58451;51.550;7.208;2023-12-29T07:39:01;100036.20;;;9.30
70831;BMP180;58451;51.550;7.208;2023-12-29T07:40:33;100035.00;;;9.30
70831;BMP180;58451;51.550;7.208;2023-12-29T07:42:05;100029.00;;;9.30
70831;BMP180;58451;51.550;7.208;2023-12-29T07:43:37;100031.40;;;9.20
70831;BMP180;58451;51.550;7.208;2023-12-29T07:45:10;100028.60;;;9.20
70831;BMP180;58451;51.550;7.208;2023-12-29T07:46:43;100025.00;;;9.20
70831;BMP180;58451;51.550;7.208;2023-12-29T07:48:15;100018.20;;;9.20
70831;BMP180;58451;51.550;7.208;2023-12-29T07:49:48;100016.00;;;9.20
70831;BMP180;58451;51.550;7.208;2023-12-29T07:51:20;100021.60;;;9.10
70831;BMP180;58451;51.550;7.208;2023-12-29T07:52:51;100012.40;;;9.10
70831;BMP180;58451;51.550;7.208;2023-12-29T07:54:23;100006.20;;;9.10
70831;BMP180;58451;51.550;7.208;2023-12-29T07:55:55;100006.60;;;9.06
70831;BMP180;58451;51.550;7.208;2023-12-29T07:57:27;100011.00;;;9.00
70831;BMP180;58451;51.550;7.208;2023-12-29T07:58:59;100005.80;;;9.00
70831;BMP180;58451;51.550;7.208;2023-12-29T08:00:31;100004.40;;;9.00
70831;BMP180;58451;51.550;7.208;2023-12-29T08:02:03;100003.60;;;9.00
70831;BMP180;58451;51.550;7.208;2023-12-29T08:03:35;100003.00;;;9.00
70831;BMP180;58451;51.550;7.208;2023-12-29T08:05:08;100011.60;;;9.00
70831;BMP180;58451;51.550;7.208;2023-12-29T08:06:42;100010.20;;;9.00
70831;BMP180;58451;51.550;7.208;2023-12-29T08:08:14;100008.80;;;9.00
70831;BMP180;58451;51.550;7.208;2023-12-29T08:09:46;100009.40;;;9.00
70831;BMP180;58451;51.550;7.208;2023-12-29T08:11:18;100012.40;;;9.00
70831;BMP180;58451;51.550;7.208;2023-12-29T08:12:50;100020.00;;;9.00
70831;BMP180;58451;51.550;7.208;2023-12-29T08:14:23;100021.20;;;9.00
70831;BMP180;58451;51.550;7.208;2023-12-29T08:15:54;100025.00;;;9.00
70831;BMP180;58451;51.550;7.208;2023-12-29T08:17:26;100030.00;;;9.00
70831;BMP180;58451;51.550;7.208;2023-12-29T08:18:59;100031.80;;;9.00
70831;BMP180;58451;51.550;7.208;2023-12-29T08:20:31;100043.20;;;9.02
70831;BMP180;58451;51.550;7.208;2023-12-29T08:22:03;100039.80;;;9.02
70831;BMP180;58451;51.550;7.208;2023-12-29T08:23:34;100046.80;;;9.10
70831;BMP180;58451;51.550;7.208;2023-12-29T08:25:07;100040.80;;;9.10
70831;BMP180;58451;51.550;7.208;2023-12-29T08:26:46;100037.00;;;9.10
70831;BMP180;58451;51.550;7.208;2023-12-29T08:28:18;100037.40;;;9.18
70831;BMP180;58451;51.550;7.208;2023-12-29T08:29:50;100038.40;;;9.18
70831;BMP180;58451;51.550;7.208;2023-12-29T08:31:22;100033.00;;;9.20
70831;BMP180;58451;51.550;7.208;2023-12-29T08:32:55;100043.00;;;9.20
70831;BMP180;58451;51.550;7.208;2023-12-29T08:34:26;100041.20;;;9.20
70831;BMP180;58451;51.550;7.208;2023-12-29T08:36:01;100033.80;;;9.30
70831;BMP180;58451;51.550;7.208;2023-12-29T08:37:33;100039.80;;;9.30
70831;BMP180;58451;51.550;7.208;2023-12-29T08:39:05;100043.00;;;9.30
70831;BMP180;58451;51.550;7.208;2023-12-29T08:40:37;100048.00;;;9.30
70831;BMP180;58451;51.550;7.208;2023-12-29T08:42:09;100032.80;;;9.30
70831;BMP180;58451;51.550;7.208;2023-12-29T08:43:41;100032.00;;;9.30
70831;BMP180;58451;51.550;7.208;2023-12-29T08:45:13;100015.60;;;9.30
70831;BMP180;58451;51.550;7.208;2023-12-29T08:46:45;100011.80;;;9.30
70831;BMP180;58451;51.550;7.208;2023-12-29T08:48:17;100028.00;;;9.30
70831;BMP180;58451;51.550;7.208;2023-12-29T08:49:49;100031.40;;;9.30
70831;BMP180;58451;51.550;7.208;2023-12-29T08:51:21;100014.80;;;9.30
70831;BMP180;58451;51.550;7.208;2023-12-29T08:52:53;100012.60;;;9.30